Time;durP1;ratioP1;P1;durP2;ratioP2;P2;SDS_P1;SDS_P2;PMS_P1;PMS_P2;Temp;Humidity;BMP_temperature;BMP_pressure;BME280_temperature;BME280_humidity;BME280_pressure;Samples;Min_cycle;Max_cycle;Signal;HPM_P1;HPM_P2
2022/01/24 00:00:10;;;;;;;38.75;18.48;;;;;;;-2.62;62.58;101650.06;5095089;28;20055;-63
2022/01/24 00:02:37;;;;;;;37.75;17.88;;;;;;;-2.63;62.75;101653.56;5094896;28;20392;-62
2022/01/24 00:05:03;;;;;;;38.08;18.80;;;;;;;-2.69;62.23;101654.41;5094832;28;20024;-66
2022/01/24 00:07:29;;;;;;;36.97;17.20;;;;;;;-2.67;62.67;101646.53;5094894;28;20055;-64
2022/01/24 00:09:58;;;;;;;37.63;19.33;;;;;;;-2.67;62.83;101651.78;5094965;28;20038;-63
2022/01/24 00:12:43;;;;;;;37.17;18.02;;;;;;;-2.66;62.72;101657.03;5094860;28;20024;-64
2022/01/24 00:17:38;;;;;;;37.42;18.48;;;;;;;-2.77;62.56;101651.75;5094879;28;20372;-64
2022/01/24 00:28:20;;;;;;;38.85;18.33;;;;;;;-2.93;63.34;101637.72;5094451;28;20122;-64
2022/01/24 00:30:46;;;;;;;37.95;17.80;;;;;;;-2.92;62.67;101651.66;5094561;28;20034;-63
2022/01/24 00:33:12;;;;;;;37.28;17.98;;;;;;;-2.85;63.38;101645.63;5094450;28;20028;-63
2022/01/24 00:35:37;;;;;;;34.95;17.58;;;;;;;-2.80;62.63;101650.84;5094254;28;20039;-62
2022/01/24 00:38:03;;;;;;;35.92;17.30;;;;;;;-2.72;62.67;101654.41;5094606;28;20456;-62
2022/01/24 00:40:37;;;;;;;39.63;17.92;;;;;;;-2.68;62.93;101658.78;5093106;28;20044;-62
2022/01/24 00:43:07;;;;;;;36.10;17.08;;;;;;;-2.65;63.10;101657.94;5094258;28;20024;-63
2022/01/24 00:45:41;;;;;;;34.50;17.27;;;;;;;-2.66;62.97;101650.91;5094380;28;20048;-63
2022/01/24 00:55:58;;;;;;;35.25;16.70;;;;;;;-2.68;62.55;101644.78;5094801;28;20388;-63
2022/01/24 00:58:23;;;;;;;34.35;16.42;;;;;;;-2.71;62.18;101648.28;5094235;28;20043;-63
2022/01/24 01:00:49;;;;;;;32.28;15.60;;;;;;;-2.70;62.33;101644.78;5093546;28;20020;-63
2022/01/24 01:03:16;;;;;;;35.05;16.85;;;;;;;-2.72;62.55;101646.53;5094163;28;20115;-63
2022/01/24 01:18:54;;;;;;;34.88;16.48;;;;;;;-2.74;62.08;101632.56;5093670;28;20060;-62
2022/01/24 01:21:20;;;;;;;32.25;17.10;;;;;;;-2.68;62.71;101644.78;5093513;28;20146;-63
2022/01/24 01:23:51;;;;;;;32.70;16.30;;;;;;;-2.66;62.10;101645.66;5093935;28;20024;-63
2022/01/24 01:28:55;;;;;;;32.20;15.90;;;;;;;-2.65;62.31;101648.31;5093276;28;20455;-62
2022/01/24 01:34:54;;;;;;;31.05;15.90;;;;;;;-2.74;61.91;101636.03;5094175;28;20111;-64
2022/01/24 01:37:12;;;;;;;;;;;;;;;-2.50;62.30;101638.75;5079486;28;20403;-63
2022/01/24 01:55:39;;;;;;;27.02;13.63;;;;;;;-2.90;61.79;101657.78;5092876;28;20522;-63
2022/01/24 01:58:09;;;;;;;29.50;14.48;;;;;;;-2.90;62.01;101658.69;5092576;28;20039;-62
2022/01/24 02:00:37;;;;;;;28.83;14.50;;;;;;;-2.90;62.49;101663.03;5092496;28;20118;-63
2022/01/24 02:03:03;;;;;;;27.23;13.55;;;;;;;-2.88;62.26;101667.44;5090949;28;20086;-63
2022/01/24 02:05:28;;;;;;;26.52;13.60;;;;;;;-3.11;62.47;101624.50;5111110;28;20063;-63
2022/01/24 02:07:54;;;;;;;26.02;13.40;;;;;;;-2.86;62.32;101667.44;5111284;27;20064;-63
2022/01/24 02:10:22;;;;;;;26.48;13.57;;;;;;;-2.87;62.16;101676.19;5112542;28;20032;-62
2022/01/24 02:12:49;;;;;;;25.92;13.30;;;;;;;-2.88;62.12;101674.44;5113086;28;20027;-63
2022/01/24 02:15:23;;;;;;;25.73;13.00;;;;;;;-2.91;62.07;101679.63;5112545;28;20036;-63
2022/01/24 02:18:04;;;;;;;23.80;12.13;;;;;;;-2.90;61.87;101677.03;5112682;28;20494;-64
2022/01/24 02:21:06;;;;;;;26.02;12.85;;;;;;;-2.88;61.88;101680.53;5110517;28;20114;-63
2022/01/24 02:25:59;;;;;;;29.42;12.75;;;;;;;-2.91;62.15;101679.63;5112961;28;20038;-63
2022/01/24 02:28:28;;;;;;;23.63;11.90;;;;;;;-3.11;61.82;101642.84;5112190;28;20032;-62
2022/01/24 02:31:07;;;;;;;21.55;11.98;;;;;;;-2.95;61.67;101677.88;5112072;28;20036;-62
2022/01/24 02:33:32;;;;;;;25.20;12.90;;;;;;;-2.94;62.33;101674.38;5112971;28;20031;-62
2022/01/24 02:35:58;;;;;;;25.75;12.57;;;;;;;-2.95;61.87;101670.00;5112420;28;20046;-62
2022/01/24 02:49:14;;;;;;;23.13;12.15;;;;;;;-2.99;62.29;101683.97;5112091;28;20051;-64
2022/01/24 02:54:17;;;;;;;24.27;12.43;;;;;;;-2.95;61.91;101677.88;5111659;28;20104;-63
2022/01/24 02:56:43;;;;;;;26.48;12.13;;;;;;;-2.98;61.62;101677.84;5111902;28;20023;-62
2022/01/24 02:59:08;;;;;;;23.80;12.93;;;;;;;-2.97;62.24;101683.13;5112436;28;20455;-63
2022/01/24 03:01:34;;;;;;;23.88;12.23;;;;;;;-2.96;61.75;101697.09;5112547;28;20024;-63
2022/01/24 03:03:59;;;;;;;22.40;11.57;;;;;;;-2.94;62.06;101684.88;5111611;28;20103;-62
2022/01/24 03:06:25;;;;;;;27.08;13.18;;;;;;;-2.95;61.96;101672.63;5111648;28;20027;-61
2022/01/24 03:08:50;;;;;;;27.30;12.98;;;;;;;-2.96;61.78;101670.88;5112146;28;20027;-62
2022/01/24 03:11:16;;;;;;;25.02;12.65;;;;;;;-3.15;62.45;101644.56;5112189;28;20110;-63
2022/01/24 03:13:42;;;;;;;24.48;13.15;;;;;;;-2.97;62.12;101666.50;5111393;28;20506;-63
2022/01/24 03:16:08;;;;;;;26.92;12.88;;;;;;;-2.96;61.48;101671.78;5111847;28;20429;-62
2022/01/24 03:18:34;;;;;;;25.02;12.80;;;;;;;-2.98;61.73;101668.28;5112272;28;20435;-63
2022/01/24 03:21:01;;;;;;;25.17;13.85;;;;;;;-2.99;61.66;101670.88;5112251;28;20028;-62
2022/01/24 03:23:27;;;;;;;25.58;13.27;;;;;;;-3.06;61.64;101652.50;5111527;28;20035;-63
2022/01/24 03:25:53;;;;;;;29.27;13.98;;;;;;;-3.00;61.99;101650.78;5110205;28;20034;-64
2022/01/24 03:28:19;;;;;;;25.38;13.45;;;;;;;-3.03;61.59;101644.66;5111992;28;20027;-63
2022/01/24 03:30:45;;;;;;;26.05;12.68;;;;;;;-3.22;61.96;101611.34;5111489;28;20126;-62
2022/01/24 03:33:11;;;;;;;27.92;14.23;;;;;;;-3.05;61.99;101649.00;5089624;28;20077;-63
2022/01/24 03:35:37;;;;;;;28.08;13.63;;;;;;;-3.02;62.24;101656.00;5089676;28;20177;-63
2022/01/24 03:38:04;;;;;;;27.25;12.90;;;;;;;-3.00;61.96;101649.03;5091107;28;20031;-63
2022/01/24 03:40:29;;;;;;;24.60;12.93;;;;;;;-3.01;62.27;101644.66;5091494;28;20073;-62
2022/01/24 03:42:55;;;;;;;25.35;12.93;;;;;;;-2.97;61.93;101643.81;5090929;28;20020;-64
2022/01/24 03:45:35;;;;;;;25.80;13.48;;;;;;;-3.13;61.62;101600.94;5090512;28;20047;-64
2022/01/24 03:48:08;;;;;;;26.17;13.32;;;;;;;-2.96;61.97;101632.47;5091275;28;20115;-63
2022/01/24 03:50:34;;;;;;;26.15;13.70;;;;;;;-2.98;61.76;101630.69;5090043;28;20047;-63
2022/01/24 03:52:59;;;;;;;24.90;13.05;;;;;;;-3.17;62.19;101593.91;5090684;28;20028;-63
2022/01/24 03:55:25;;;;;;;22.13;12.45;;;;;;;-2.96;61.85;101628.94;5090851;28;20032;-64
2022/01/24 03:57:51;;;;;;;27.27;13.65;;;;;;;-2.95;61.59;101631.59;5090703;28;20380;-63
2022/01/24 04:00:17;;;;;;;24.98;13.38;;;;;;;-2.95;61.45;101631.59;5090929;28;20028;-64
2022/01/24 04:02:43;;;;;;;25.08;12.98;;;;;;;-3.17;61.68;101596.53;5090950;28;20043;-63
2022/01/24 04:05:09;;;;;;;27.85;14.02;;;;;;;-3.06;61.45;101631.53;5090897;28;20028;-62
2022/01/24 04:07:34;;;;;;;23.83;13.30;;;;;;;-3.09;62.16;101634.16;5091402;28;20071;-63
2022/01/24 04:10:07;;;;;;;29.25;14.02;;;;;;;-3.05;62.54;101620.19;5090379;28;20085;-63
2022/01/24 04:12:35;;;;;;;24.75;12.40;;;;;;;-3.00;62.04;101622.84;5090768;28;20024;-63
2022/01/24 04:15:27;;;;;;;24.88;13.32;;;;;;;-2.99;62.55;101628.94;5091089;28;20032;-63
2022/01/24 04:18:11;;;;;;;28.48;13.05;;;;;;;-2.92;62.23;101621.09;5090975;28;20084;-64
2022/01/24 04:23:21;;;;;;;28.70;13.63;;;;;;;-2.91;61.87;101629.84;5090924;28;20035;-64
2022/01/24 04:25:47;;;;;;;26.63;13.23;;;;;;;-2.91;61.57;101627.22;5090138;28;20119;-63
2022/01/24 04:28:12;;;;;;;25.33;13.25;;;;;;;-2.93;61.43;101615.84;5090745;28;20279;-64
2022/01/24 04:30:38;;;;;;;26.70;13.90;;;;;;;-2.92;62.14;101630.69;5090813;28;20036;-64
2022/01/24 04:33:03;;;;;;;27.33;14.43;;;;;;;-3.00;61.19;101637.66;5090582;28;20039;-63
2022/01/24 04:35:29;;;;;;;27.00;14.00;;;;;;;-3.05;61.51;101635.91;5090360;28;20139;-63
2022/01/24 04:37:55;;;;;;;27.70;13.63;;;;;;;-3.30;62.14;101585.09;5090830;28;20028;-63
2022/01/24 04:40:20;;;;;;;25.95;13.20;;;;;;;-3.08;61.43;101630.66;5089932;28;20029;-64
2022/01/24 04:42:52;;;;;;;26.52;13.73;;;;;;;-3.12;62.07;101634.13;5091546;28;20031;-63
2022/01/24 04:51:06;;;;;;;32.40;14.45;;;;;;;-3.05;62.05;101621.91;5093848;28;20036;-63
2022/01/24 04:53:51;;;;;;;28.88;13.32;;;;;;;-3.03;62.47;101628.91;5094087;28;20058;-64
2022/01/24 04:56:17;;;;;;;29.20;15.23;;;;;;;-2.98;62.50;101649.03;5094060;28;20024;-64
2022/01/24 04:58:42;;;;;;;28.73;13.60;;;;;;;-2.97;62.40;101637.69;5093807;28;20035;-62
2022/01/24 05:01:08;;;;;;;29.33;13.52;;;;;;;-3.11;62.66;101621.88;5094191;28;20030;-63
2022/01/24 05:03:33;;;;;;;29.08;14.60;;;;;;;-2.96;62.78;101652.53;5093922;28;20031;-62
2022/01/24 05:06:00;;;;;;;29.30;14.63;;;;;;;-2.98;62.62;101659.50;5094008;28;20032;-63
2022/01/24 05:08:25;;;;;;;29.65;14.70;;;;;;;-3.00;62.38;101658.63;5093891;28;20055;-63
2022/01/24 05:11:02;;;;;;;32.10;15.48;;;;;;;-3.01;62.93;101663.00;5093288;28;20478;-65
2022/01/24 05:24:05;;;;;;;31.15;14.55;;;;;;;-2.96;61.98;101649.91;5094097;28;20081;-63
2022/01/24 05:26:31;;;;;;;28.67;14.80;;;;;;;-3.00;62.76;101646.41;5093960;28;20123;-64
2022/01/24 05:28:56;;;;;;;28.65;14.95;;;;;;;-3.01;63.12;101651.63;5093123;28;20028;-64
2022/01/24 05:31:22;;;;;;;30.95;15.15;;;;;;;-3.01;62.58;101654.25;5093033;28;20383;-64
2022/01/24 05:33:49;;;;;;;34.30;14.95;;;;;;;-2.95;62.67;101672.63;5093542;28;20103;-63
2022/01/24 05:36:14;;;;;;;31.25;14.48;;;;;;;-2.98;62.59;101667.38;5093373;28;20468;-62
2022/01/24 05:38:40;;;;;;;34.28;15.07;;;;;;;-3.04;62.84;101663.88;5093052;28;20028;-63
2022/01/24 05:41:06;;;;;;;31.88;15.32;;;;;;;-3.07;62.14;101663.84;5092675;28;20024;-64
2022/01/24 05:43:31;;;;;;;28.75;14.55;;;;;;;-2.98;62.20;101677.84;5093124;28;20051;-63
2022/01/24 05:45:57;;;;;;;28.90;14.27;;;;;;;-2.99;62.69;101676.09;5092687;28;20097;-64
2022/01/24 05:48:22;;;;;;;32.80;13.57;;;;;;;-3.05;62.39;101669.97;5092517;28;20036;-64
2022/01/24 05:50:48;;;;;;;26.00;14.07;;;;;;;-2.97;63.03;101677.00;5092406;28;20032;-63
2022/01/24 05:53:14;;;;;;;29.13;14.55;;;;;;;-2.96;62.67;101676.13;5092827;28;20039;-62
2022/01/24 05:55:39;;;;;;;27.35;14.20;;;;;;;-2.97;62.48;101677.88;5092594;28;20040;-62
2022/01/24 05:58:05;;;;;;;29.67;14.48;;;;;;;-2.98;62.23;101673.50;5091918;28;20039;-63
2022/01/24 06:00:30;;;;;;;28.20;14.15;;;;;;;-2.97;62.18;101666.50;5092427;28;20410;-63
2022/01/24 06:02:56;;;;;;;28.20;14.18;;;;;;;-2.98;62.16;101673.50;5092558;28;20113;-63
2022/01/24 06:05:22;;;;;;;26.85;13.38;;;;;;;-2.97;62.16;101663.88;5092123;28;20047;-64
2022/01/24 06:07:49;;;;;;;26.02;13.38;;;;;;;-2.99;62.41;101656.03;5091208;28;20068;-65
2022/01/24 06:10:15;;;;;;;27.77;13.70;;;;;;;-3.00;62.35;101669.13;5092792;28;20039;-63
2022/01/24 06:12:41;;;;;;;28.42;13.80;;;;;;;-3.03;62.87;101676.09;5092379;28;20471;-64
2022/01/24 06:15:07;;;;;;;28.67;13.95;;;;;;;-3.08;62.24;101666.44;5091862;28;20032;-63
2022/01/24 06:17:32;;;;;;;28.50;13.40;;;;;;;-3.01;61.93;101668.25;5092753;28;20072;-64
2022/01/24 06:19:58;;;;;;;30.10;14.20;;;;;;;-3.03;61.99;101669.97;5091983;28;20533;-64
2022/01/24 06:22:23;;;;;;;32.45;14.57;;;;;;;-3.00;62.58;101674.34;5091720;28;20032;-63
2022/01/24 06:24:49;;;;;;;31.35;14.23;;;;;;;-3.02;62.16;101679.56;5093106;28;20098;-64
2022/01/24 06:27:14;;;;;;;30.95;14.48;;;;;;;-3.04;62.99;101679.59;5091072;28;20036;-65
2022/01/24 06:29:40;;;;;;;28.55;14.02;;;;;;;-3.04;62.27;101684.81;5092031;28;20085;-64
2022/01/24 06:32:06;;;;;;;28.20;14.13;;;;;;;-3.04;62.14;101682.22;5092493;28;20032;-63
2022/01/24 06:34:31;;;;;;;25.15;13.23;;;;;;;-3.00;62.22;101672.63;5092253;28;20486;-63
2022/01/24 06:36:57;;;;;;;28.90;13.02;;;;;;;-3.00;62.26;101676.97;5090963;28;20024;-63
2022/01/24 06:39:22;;;;;;;27.40;13.55;;;;;;;-3.01;62.04;101676.13;5090686;28;20085;-63
2022/01/24 06:42:04;;;;;;;30.55;13.70;;;;;;;-3.10;62.27;101681.28;5092569;28;20115;-62
2022/01/24 06:44:29;;;;;;;28.90;13.27;;;;;;;-3.15;61.75;101683.00;5092062;28;20082;-63
2022/01/24 06:46:55;;;;;;;30.15;14.02;;;;;;;-3.18;61.85;101678.63;5091939;28;20035;-63
2022/01/24 06:49:20;;;;;;;27.38;13.18;;;;;;;-3.24;62.12;101681.19;5092080;28;20036;-71
2022/01/24 06:51:47;;;;;;;26.73;13.20;;;;;;;-3.25;61.20;101679.44;5092701;28;20055;-71
2022/01/24 06:54:12;;;;;;;32.47;13.68;;;;;;;-3.32;62.30;101674.19;5091781;28;20052;-72
2022/01/24 06:56:38;;;;;;;27.88;13.55;;;;;;;-3.23;62.50;101677.72;5090372;28;20113;-72
2022/01/24 06:59:03;;;;;;;24.92;12.85;;;;;;;-3.18;62.46;101682.13;5092274;28;20040;-70
2022/01/24 07:01:29;;;;;;;26.38;13.10;;;;;;;-3.34;61.87;101644.47;5093196;28;20028;-72
2022/01/24 07:03:54;;;;;;;28.33;13.60;;;;;;;-3.13;61.78;101678.66;5092801;28;20066;-69
2022/01/24 07:06:20;;;;;;;23.20;12.55;;;;;;;-3.22;62.02;101663.75;5103173;28;20075;-69
2022/01/24 07:08:45;;;;;;;26.77;13.63;;;;;;;-3.12;62.33;101675.16;5102970;28;20024;-69
2022/01/24 07:11:11;;;;;;;27.50;13.20;;;;;;;-3.08;61.71;101688.31;5092128;28;20412;-71
2022/01/24 07:13:36;;;;;;;27.35;14.00;;;;;;;-3.09;62.31;101691.78;5091889;28;20030;-70
2022/01/24 07:16:05;;;;;;;27.73;14.32;;;;;;;-3.32;62.09;101655.84;5091308;28;20028;-70
2022/01/24 07:20:57;;;;;;;27.75;14.45;;;;;;;-3.14;61.89;101682.13;5092001;28;20118;-69
2022/01/24 07:23:23;;;;;;;33.58;15.60;;;;;;;-3.12;62.25;101688.25;5091887;28;20054;-70
2022/01/24 07:25:48;;;;;;;27.80;13.38;;;;;;;-3.37;62.09;101643.56;5091939;28;20430;-71
2022/01/24 07:28:15;;;;;;;27.08;13.73;;;;;;;-3.13;62.00;101695.25;5091564;28;20112;-68
2022/01/24 07:30:42;;;;;;;26.58;13.07;;;;;;;-3.14;61.66;101682.13;5090949;28;20487;-71
2022/01/24 07:33:08;;;;;;;26.75;13.65;;;;;;;-3.17;61.98;101678.63;5091755;28;20028;-71
2022/01/24 07:35:33;;;;;;;30.75;14.63;;;;;;;-3.06;61.88;101694.44;5091299;28;20103;-71
2022/01/24 07:38:00;;;;;;;27.73;13.93;;;;;;;-3.09;61.69;101681.31;5091055;28;20040;-69
2022/01/24 07:40:26;;;;;;;29.00;14.00;;;;;;;-3.06;61.63;101680.44;5090048;28;20024;-72
2022/01/24 07:42:56;;;;;;;26.08;13.68;;;;;;;-3.03;61.40;101683.97;5090586;28;20536;-66
2022/01/24 07:45:24;;;;;;;33.00;14.90;;;;;;;-3.00;61.42;101677.88;5090870;28;20044;-68
2022/01/24 07:47:50;;;;;;;29.27;13.85;;;;;;;-3.00;61.51;101674.34;5091201;28;20098;-72
2022/01/24 07:50:20;;;;;;;29.17;14.77;;;;;;;-2.95;61.46;101686.63;5090983;28;20392;-71
2022/01/24 07:52:46;;;;;;;27.40;13.90;;;;;;;-2.95;61.43;101680.50;5090827;28;20028;-71
2022/01/24 07:55:12;;;;;;;30.80;14.77;;;;;;;-2.95;61.45;101678.75;5090776;28;20039;-70
2022/01/24 07:57:38;;;;;;;33.13;15.68;;;;;;;-2.95;61.57;101672.63;5091055;28;20021;-65
2022/01/24 08:00:06;;;;;;;33.63;14.68;;;;;;;-2.96;61.25;101670.88;5090431;28;20454;-63
2022/01/24 08:02:33;;;;;;;28.85;14.48;;;;;;;-2.94;61.30;101674.38;5088461;28;20444;-67
2022/01/24 08:04:58;;;;;;;30.17;14.55;;;;;;;-2.87;61.53;101676.19;5092468;28;20067;-69
2022/01/24 08:07:24;;;;;;;30.10;14.90;;;;;;;-2.83;61.19;101685.81;5083257;28;20035;-70
2022/01/24 08:09:49;;;;;;;31.98;15.55;;;;;;;-2.86;60.85;101663.94;5105533;28;20035;-71
2022/01/24 08:12:15;;;;;;;33.17;15.00;;;;;;;-2.76;60.81;101664.00;5090192;28;20099;-65
2022/01/24 08:14:40;;;;;;;30.40;15.45;;;;;;;-2.76;60.93;101671.00;5084696;28;20476;-67
2022/01/24 08:17:06;;;;;;;30.52;15.27;;;;;;;-2.80;61.14;101656.09;5099970;28;20028;-68
2022/01/24 08:19:33;;;;;;;29.08;14.13;;;;;;;-2.72;60.96;101674.47;5109382;28;20027;-68
2022/01/24 08:21:59;;;;;;;29.38;14.18;;;;;;;-2.79;61.01;101660.47;5097525;28;20437;-69
2022/01/24 08:24:24;;;;;;;28.50;14.82;;;;;;;-2.79;61.01;101661.34;5109143;28;20024;-69
2022/01/24 08:26:50;;;;;;;30.60;15.02;;;;;;;-2.81;60.53;101662.22;5095207;28;20092;-72
2022/01/24 08:29:16;;;;;;;27.35;13.88;;;;;;;-2.80;60.96;101657.00;5105274;28;20053;-70
2022/01/24 08:31:42;;;;;;;30.50;15.75;;;;;;;-2.71;60.61;101666.63;5098581;28;20059;-73
2022/01/24 08:34:07;;;;;;;30.77;14.20;;;;;;;-2.67;60.29;101665.78;5106684;28;20412;-73
2022/01/24 08:36:34;;;;;;;28.58;14.13;;;;;;;-2.66;59.73;101658.78;5108882;28;20035;-71
2022/01/24 08:39:06;;;;;;;25.75;13.27;;;;;;;-2.59;59.76;101665.81;5104763;28;20106;-70
2022/01/24 08:41:42;;;;;;;30.65;14.55;;;;;;;-2.46;59.93;101671.97;5098234;28;20032;-74
2022/01/24 08:44:33;;;;;;;29.08;13.90;;;;;;;-2.48;59.01;101661.47;5110953;28;20028;-68
2022/01/24 08:47:00;;;;;;;30.35;14.82;;;;;;;-2.65;59.13;101650.94;5103397;28;20463;-69
2022/01/24 08:49:25;;;;;;;26.65;14.02;;;;;;;-2.57;58.96;101679.81;5100640;28;20036;-69
2022/01/24 08:51:51;;;;;;;32.60;13.50;;;;;;;-2.69;59.06;101657.03;5109274;28;20537;-71
2022/01/24 08:54:16;;;;;;;30.30;14.55;;;;;;;-2.72;59.69;101654.41;5110071;28;20032;-66
2022/01/24 08:56:42;;;;;;;31.05;14.55;;;;;;;-2.71;60.12;101656.16;5101550;28;20040;-67
2022/01/24 08:59:09;;;;;;;29.20;14.50;;;;;;;-2.63;59.67;101656.19;5102436;28;20093;-66
2022/01/24 09:01:34;;;;;;;28.73;14.15;;;;;;;-2.53;59.16;101663.22;5097732;28;20063;-68
2022/01/24 09:04:01;;;;;;;28.25;14.48;;;;;;;-2.47;59.72;101663.22;5095738;28;20126;-71
2022/01/24 09:06:28;;;;;;;30.25;13.80;;;;;;;-2.41;59.31;101651.88;5109091;28;20039;-72
2022/01/24 09:08:59;;;;;;;31.80;14.68;;;;;;;-2.36;58.82;101655.38;5102945;28;20030;-71
2022/01/24 09:11:31;;;;;;;29.10;14.18;;;;;;;-2.29;59.15;101661.53;5100342;28;20117;-71
2022/01/24 09:13:57;;;;;;;27.40;13.43;;;;;;;-2.34;59.04;101650.16;5110750;28;20055;-76
2022/01/24 09:16:24;;;;;;;28.38;13.95;;;;;;;-2.28;58.77;101650.16;5099545;28;20394;-64
2022/01/24 09:18:49;;;;;;;26.88;12.93;;;;;;;-2.29;58.76;101648.41;5103583;28;20032;-65
2022/01/24 09:21:15;;;;;;;30.90;14.27;;;;;;;-2.28;58.87;101649.28;5105545;28;20425;-64
2022/01/24 09:23:41;;;;;;;26.90;14.05;;;;;;;-2.32;58.71;101640.53;5098140;28;20095;-64
2022/01/24 09:26:07;;;;;;;26.33;13.45;;;;;;;-2.32;58.70;101632.66;5110405;28;20024;-63
2022/01/24 09:28:33;;;;;;;30.83;16.35;;;;;;;-2.31;58.73;101637.03;5098820;28;20031;-66
2022/01/24 09:30:58;;;;;;;30.08;14.93;;;;;;;-2.29;58.27;101643.16;5103498;28;20036;-64
2022/01/24 09:33:25;;;;;;;33.55;15.48;;;;;;;-2.29;58.27;101637.91;5107180;28;20020;-63
2022/01/24 09:35:52;;;;;;;28.90;13.80;;;;;;;-2.32;58.11;101638.75;5101514;28;20020;-65
2022/01/24 09:38:20;;;;;;;29.58;13.52;;;;;;;-2.39;58.61;101649.28;5104140;28;20044;-67
2022/01/24 09:40:46;;;;;;;27.80;14.15;;;;;;;-2.45;58.71;101632.63;5104285;28;20031;-64
2022/01/24 09:43:12;;;;;;;28.67;14.07;;;;;;;-2.59;58.95;101618.59;5109956;28;20126;-68
2022/01/24 09:45:38;;;;;;;27.70;13.75;;;;;;;-2.61;58.88;101625.59;5097177;28;20134;-66
2022/01/24 09:48:04;;;;;;;29.10;13.75;;;;;;;-2.61;59.20;101634.31;5105111;28;20036;-65
2022/01/24 09:50:29;;;;;;;30.98;14.65;;;;;;;-2.65;58.98;101621.22;5102435;28;20027;-66
2022/01/24 09:52:56;;;;;;;29.52;14.05;;;;;;;-2.58;59.14;101625.59;5097480;28;20464;-66
2022/01/24 09:55:24;;;;;;;29.00;13.70;;;;;;;-2.55;59.58;101619.47;5109461;28;20034;-65
2022/01/24 09:57:50;;;;;;;29.00;14.25;;;;;;;-2.52;59.52;101628.25;5097549;28;20031;-68
2022/01/24 10:00:22;;;;;;;27.67;12.98;;;;;;;-2.74;59.11;101573.09;5103112;28;20063;-66
2022/01/24 10:02:50;;;;;;;25.88;12.80;;;;;;;-2.53;59.16;101620.34;5106637;28;20031;-66
2022/01/24 10:05:30;;;;;;;29.25;13.95;;;;;;;-2.47;59.92;101623.00;5094941;28;20423;-67
2022/01/24 10:07:58;;;;;;;27.88;12.73;;;;;;;-2.54;59.05;101611.63;5106028;28;20035;-70
2022/01/24 10:10:29;;;;;;;28.42;13.45;;;;;;;-2.53;58.99;101605.50;5091181;28;20131;-66
2022/01/24 10:18:08;;;;;;;30.05;13.70;;;;;;;-2.57;59.62;101600.25;5100475;28;20032;-69
2022/01/24 10:20:41;;;;;;;29.48;13.70;;;;;;;-2.56;59.12;101605.50;5103531;28;20028;-66
2022/01/24 10:23:16;;;;;;;28.85;13.93;;;;;;;-2.56;59.80;101602.00;5109110;28;20527;-67
2022/01/24 10:25:52;;;;;;;25.50;13.00;;;;;;;-2.50;59.18;101608.13;5096748;28;20020;-66
2022/01/24 10:28:28;;;;;;;25.73;12.60;;;;;;;-2.50;59.18;101597.63;5101254;28;20058;-67
2022/01/24 10:31:02;;;;;;;28.40;14.35;;;;;;;-2.55;59.34;101594.13;5106920;28;20353;-68
2022/01/24 10:33:28;;;;;;;29.75;14.55;;;;;;;-2.67;59.39;101587.13;5095263;28;20035;-69
2022/01/24 10:35:53;;;;;;;29.38;13.75;;;;;;;-2.69;59.76;101593.22;5105278;28;20024;-66
2022/01/24 10:38:55;;;;;;;30.35;13.32;;;;;;;-2.67;59.43;101586.22;5100393;28;20024;-66
2022/01/24 10:41:24;;;;;;;30.77;14.02;;;;;;;-2.68;59.48;101581.84;5094096;28;20028;-66
2022/01/24 10:43:58;;;;;;;27.60;13.32;;;;;;;-2.69;59.41;101581.00;5105639;28;20034;-67
2022/01/24 10:46:25;;;;;;;30.05;13.60;;;;;;;-2.71;59.76;101577.50;5101940;28;20035;-66
2022/01/24 10:49:00;;;;;;;30.10;14.32;;;;;;;-2.67;60.04;101571.38;5096798;28;20393;-67
2022/01/24 10:51:26;;;;;;;;;;;;;;;-2.46;59.96;101567.91;5107771;28;20028;-67
2022/01/24 10:53:55;;;;;;;30.20;14.10;;;;;;;-2.58;59.17;101573.16;5097906;28;19926;-65
2022/01/24 10:56:27;;;;;;;26.83;14.25;;;;;;;-2.64;58.84;101563.53;5100639;28;20447;-68
2022/01/24 10:58:57;;;;;;;35.92;14.65;;;;;;;-2.76;59.68;101563.50;5106216;28;20477;-68
2022/01/24 11:01:27;;;;;;;29.60;14.95;;;;;;;-2.69;59.35;101572.22;5096360;28;20024;-65
2022/01/24 11:04:04;;;;;;;31.80;13.70;;;;;;;-2.74;59.55;101572.25;5090121;28;20027;-66
2022/01/24 11:06:34;;;;;;;27.58;13.48;;;;;;;-2.78;59.40;101570.47;5099016;28;20040;-67
2022/01/24 11:09:19;;;;;;;30.83;14.10;;;;;;;-2.81;59.18;101570.47;5106892;28;20047;-67
2022/01/24 11:11:45;;;;;;;25.75;13.77;;;;;;;-2.99;59.43;101561.69;5080259;28;20112;-65
2022/01/24 11:14:15;;;;;;;30.35;14.32;;;;;;;-3.09;59.89;101563.41;5100715;28;20039;-69
2022/01/24 11:16:41;;;;;;;28.63;14.18;;;;;;;-3.23;60.05;101554.59;5103410;28;20486;-70
2022/01/24 11:19:14;;;;;;;31.42;15.30;;;;;;;-3.14;60.34;101561.63;5094110;28;20477;-65
2022/01/24 11:21:42;;;;;;;34.28;15.07;;;;;;;-3.21;59.83;101550.22;5083799;28;20128;-66
2022/01/24 11:24:09;;;;;;;31.45;15.02;;;;;;;-3.22;59.52;101564.19;5090033;28;20038;-65
2022/01/24 11:26:36;;;;;;;32.60;15.73;;;;;;;-3.38;59.62;101545.78;5082461;28;20028;-66
2022/01/24 11:29:03;;;;;;;31.88;14.60;;;;;;;-3.30;60.23;101558.06;5067248;28;20068;-68
2022/01/24 11:31:38;;;;;;;32.60;14.68;;;;;;;-3.30;60.00;101550.19;5107295;28;20056;-67
2022/01/24 11:34:33;;;;;;;29.77;14.13;;;;;;;-3.24;60.53;101544.97;5090310;28;20024;-64
2022/01/24 11:36:58;;;;;;;32.17;15.32;;;;;;;-3.35;60.14;101532.72;5097500;28;20085;-66
2022/01/24 11:39:25;;;;;;;32.17;15.50;;;;;;;-3.38;59.72;101540.53;5093547;27;20119;-66
2022/01/24 11:41:51;;;;;;;32.90;15.45;;;;;;;-3.48;60.17;101536.13;5104222;28;20107;-70
2022/01/24 11:44:18;;;;;;;34.13;15.70;;;;;;;-3.51;60.59;101530.88;5094188;28;20142;-70
2022/01/24 11:46:55;;;;;;;29.02;15.05;;;;;;;-3.61;60.78;101522.09;5103812;28;20031;-69
2022/01/24 11:49:35;;;;;;;31.60;15.68;;;;;;;-3.60;60.79;101534.31;5093930;28;20036;-71
2022/01/24 11:52:06;;;;;;;35.95;15.50;;;;;;;-3.64;60.64;101522.94;5106706;28;20039;-69
2022/01/24 11:55:02;;;;;;;33.92;15.15;;;;;;;-3.62;60.64;101523.84;5109261;28;20035;-70
2022/01/24 11:57:37;;;;;;;36.70;15.52;;;;;;;-3.52;60.51;101522.13;5099570;28;20024;-67
2022/01/24 12:00:05;;;;;;;33.17;15.77;;;;;;;-3.41;60.30;101522.19;5109231;27;20062;-70
2022/01/24 12:02:39;;;;;;;33.70;15.82;;;;;;;-3.39;60.49;101504.75;5109518;28;20027;-70
2022/01/24 12:05:12;;;;;;;33.33;15.93;;;;;;;-3.25;60.69;101507.44;5096172;27;20510;-68
2022/01/24 12:07:44;;;;;;;32.65;16.17;;;;;;;-3.20;59.98;101510.06;5082962;28;20475;-68
2022/01/24 12:10:26;;;;;;;35.25;17.17;;;;;;;-3.16;60.11;101511.81;5108692;28;20077;-70
2022/01/24 12:12:54;;;;;;;37.95;17.02;;;;;;;-3.19;60.59;101504.84;5112250;28;20076;-65
2022/01/24 12:15:38;;;;;;;35.42;16.65;;;;;;;-3.16;60.81;101498.72;5100211;28;20038;-68
2022/01/24 12:18:12;;;;;;;32.20;16.25;;;;;;;-3.20;60.72;101490.00;5109440;28;20105;-70
2022/01/24 12:20:37;;;;;;;32.67;15.43;;;;;;;-3.19;60.05;101494.34;5104062;28;20490;-64
2022/01/24 12:23:30;;;;;;;32.20;16.60;;;;;;;-3.10;61.13;101496.13;5113463;28;20036;-64
2022/01/24 12:25:58;;;;;;;38.63;16.48;;;;;;;-3.13;60.18;101490.00;5086426;28;20119;-63
2022/01/24 12:28:27;;;;;;;32.60;15.38;;;;;;;-3.14;60.44;101499.59;5106623;27;20032;-63
2022/01/24 12:30:56;;;;;;;32.13;15.90;;;;;;;-3.14;60.83;101496.97;5096712;28;20383;-65
2022/01/24 12:33:51;;;;;;;33.67;16.75;;;;;;;-3.05;60.93;101493.50;5114216;28;20093;-66
2022/01/24 12:36:49;;;;;;;33.25;15.82;;;;;;;-3.04;60.59;101493.53;5041601;28;20102;-65
2022/01/24 12:39:21;;;;;;;34.40;16.70;;;;;;;-3.14;59.96;101511.84;5113871;28;20070;-66
2022/01/24 12:41:52;;;;;;;36.53;16.45;;;;;;;-3.23;60.42;101510.06;5101947;28;20039;-64
2022/01/24 12:47:04;;;;;;;35.65;17.58;;;;;;;-3.33;60.24;101510.03;5113437;28;20093;-65
2022/01/24 12:49:30;;;;;;;35.03;16.88;;;;;;;-3.42;60.54;101491.63;5100146;28;20031;-66
2022/01/24 12:52:06;;;;;;;36.40;17.13;;;;;;;-3.35;60.64;101503.91;5108383;28;20032;-64
2022/01/24 12:54:34;;;;;;;37.88;16.85;;;;;;;-3.35;60.58;101500.41;5108891;28;20467;-64